Time;durP1;ratioP1;P1;durP2;ratioP2;P2;SDS_P1;SDS_P2;PMS_P1;PMS_P2;Temp;Humidity;BMP_temperature;BMP_pressure;BME280_temperature;BME280_humidity;BME280_pressure;Samples;Min_cycle;Max_cycle;Signal;HPM_P1;HPM_P2
2021/04/05 00:02:12;;;;;;;51.28;24.27;;;;;;;-1.81;70.42;96939.98;1852001;77;25537;-77
2021/04/05 00:04:40;;;;;;;39.33;20.40;;;;;;;-1.80;70.37;96933.72;1826735;77;25789;-78
2021/04/05 00:07:08;;;;;;;44.33;21.20;;;;;;;-1.87;70.35;96926.87;1819579;78;27485;-77
2021/04/05 00:09:36;;;;;;;45.70;21.57;;;;;;;-1.91;70.39;96927.30;1819477;78;25794;-77
2021/04/05 00:12:04;;;;;;;45.65;22.50;;;;;;;-1.90;70.42;96921.86;1819532;78;25748;-77
2021/04/05 00:14:33;;;;;;;41.33;21.10;;;;;;;-1.85;70.49;96918.79;1819544;78;25697;-77
2021/04/05 00:17:00;;;;;;;38.78;19.57;;;;;;;-1.86;70.40;96910.02;1819570;78;25712;-77
2021/04/05 00:19:28;;;;;;;37.88;20.60;;;;;;;-1.88;70.43;96913.30;1819568;78;27546;-77
2021/04/05 00:21:55;;;;;;;48.40;20.80;;;;;;;-1.94;70.48;96895.87;1819446;77;25653;-77
2021/04/05 00:24:23;;;;;;;35.13;18.62;;;;;;;-1.94;70.53;96890.58;1819507;78;25336;-77
2021/04/05 00:26:50;;;;;;;35.35;18.95;;;;;;;-1.95;70.47;96897.67;1819563;77;25714;-77
2021/04/05 00:29:18;;;;;;;36.50;18.55;;;;;;;-1.92;70.51;96893.39;1845505;77;25694;-77
2021/04/05 00:31:45;;;;;;;39.63;19.30;;;;;;;-1.88;70.55;96893.45;1818483;78;27502;-77
2021/04/05 00:34:13;;;;;;;38.98;19.73;;;;;;;-1.88;70.54;96882.88;1818312;78;26049;-77
2021/04/05 00:36:40;;;;;;;37.93;19.62;;;;;;;-1.88;70.50;96887.33;1827306;77;25704;-77
2021/04/05 00:39:07;;;;;;;34.48;17.95;;;;;;;-1.86;70.49;96882.23;1858141;77;25704;-77
2021/04/05 00:41:35;;;;;;;34.00;16.77;;;;;;;-1.89;70.46;96873.27;1858265;77;25645;-77
2021/04/05 00:44:03;;;;;;;35.80;18.35;;;;;;;-1.90;70.47;96872.09;1858273;77;27581;-77
2021/04/05 00:46:31;;;;;;;35.30;19.00;;;;;;;-1.98;70.50;96859.61;1858203;77;25678;-77
2021/04/05 00:48:59;;;;;;;42.05;19.77;;;;;;;-2.04;70.62;96853.56;1858401;77;25820;-77
2021/04/05 00:51:27;;;;;;;38.88;19.05;;;;;;;-2.05;70.71;96850.58;1858278;77;25707;-77
2021/04/05 00:53:56;;;;;;;37.50;19.25;;;;;;;-2.03;70.73;96845.98;1858294;77;26320;-77
2021/04/05 00:56:27;;;;;;;33.48;17.90;;;;;;;-2.03;70.73;96842.02;1827549;77;27639;-77
2021/04/05 00:58:55;;;;;;;35.52;17.82;;;;;;;-2.00;70.80;96841.73;1858317;77;25744;-77
2021/04/05 01:01:27;;;;;;;33.40;18.57;;;;;;;-2.04;70.75;96837.70;1858288;77;25691;-77
2021/04/05 01:03:56;;;;;;;36.35;18.45;;;;;;;-2.01;70.75;96845.84;1858393;77;26745;-77
2021/04/05 01:06:27;;;;;;;34.78;17.80;;;;;;;-1.99;70.74;96839.42;1858265;77;25799;-77
2021/04/05 01:08:55;;;;;;;34.55;16.40;;;;;;;-2.00;70.72;96828.98;1858556;77;27496;-77
2021/04/05 01:11:27;;;;;;;33.53;16.85;;;;;;;-2.02;70.73;96825.66;1858228;77;25657;-77
2021/04/05 01:13:57;;;;;;;32.15;17.02;;;;;;;-2.09;70.75;96824.10;1858349;77;25699;-77
2021/04/05 01:16:30;;;;;;;41.65;17.02;;;;;;;-2.09;70.86;96820.14;1858381;77;25734;-77
2021/04/05 01:19:01;;;;;;;29.30;16.25;;;;;;;-2.09;70.83;96812.69;1858243;77;25833;-77
2021/04/05 01:21:29;;;;;;;28.55;15.48;;;;;;;-2.10;70.83;96799.95;1858410;77;27491;-77
2021/04/05 01:23:56;;;;;;;27.60;14.30;;;;;;;-2.08;70.87;96801.97;1858323;77;25815;-77
2021/04/05 01:26:23;;;;;;;27.00;14.47;;;;;;;-2.07;70.87;96802.31;1858279;77;25652;-77
2021/04/05 01:28:51;;;;;;;25.65;14.07;;;;;;;-2.10;70.80;96797.31;1857647;77;25733;-77
2021/04/05 01:31:19;;;;;;;26.82;13.70;;;;;;;-2.07;70.90;96795.70;1849461;77;25737;-77
2021/04/05 01:33:46;;;;;;;23.75;13.88;;;;;;;-2.08;70.90;96798.00;1858390;77;27883;-77
2021/04/05 01:36:17;;;;;;;28.70;14.93;;;;;;;-2.04;70.94;96787.45;1837604;77;26007;-77
2021/04/05 01:38:48;;;;;;;30.00;14.70;;;;;;;-2.01;70.83;96782.36;1831568;77;25722;-77
2021/04/05 01:41:24;;;;;;;28.10;14.95;;;;;;;-1.99;70.84;96785.20;1855578;76;25675;-77
2021/04/05 01:43:52;;;;;;;26.57;13.75;;;;;;;-1.99;70.87;96783.88;1855708;76;25641;-77
2021/04/05 01:46:21;;;;;;;29.95;14.58;;;;;;;-2.05;70.78;96784.46;1826838;77;28395;-77
2021/04/05 01:48:49;;;;;;;28.30;15.18;;;;;;;-2.09;70.79;96773.03;1820262;78;25729;-77
2021/04/05 01:51:21;;;;;;;23.40;13.18;;;;;;;-2.10;70.89;96770.88;1828095;77;25698;-77
2021/04/05 01:53:50;;;;;;;31.00;14.35;;;;;;;-2.10;70.80;96769.55;1820368;78;26507;-77
2021/04/05 01:56:19;;;;;;;31.45;15.40;;;;;;;-2.13;70.89;96768.52;1822556;77;25695;-77
2021/04/05 01:58:51;;;;;;;25.75;13.85;;;;;;;-2.13;70.91;96756.61;1855556;77;27492;-77
2021/04/05 02:01:28;;;;;;;28.42;15.08;;;;;;;-2.15;70.89;96749.31;1855679;77;25734;-77
2021/04/05 02:03:56;;;;;;;25.05;13.43;;;;;;;-2.19;70.98;96754.09;1855559;77;25687;-77
2021/04/05 02:06:28;;;;;;;26.70;13.55;;;;;;;-2.20;71.01;96751.10;1855500;77;26390;-77
2021/04/05 02:08:56;;;;;;;26.48;14.83;;;;;;;-2.17;71.01;96742.84;1855640;77;25688;-77
2021/04/05 02:11:28;;;;;;;23.83;13.85;;;;;;;-2.15;70.98;96736.09;1855567;76;27564;-77
2021/04/05 02:13:58;;;;;;;21.35;12.40;;;;;;;-2.09;70.98;96733.36;1855641;77;25711;-77
2021/04/05 02:16:28;;;;;;;25.35;12.23;;;;;;;-2.08;70.93;96729.73;1855463;77;25696;-77
2021/04/05 02:18:58;;;;;;;21.65;12.28;;;;;;;-2.09;70.87;96723.61;1855629;77;25721;-77
2021/04/05 02:21:28;;;;;;;24.10;13.60;;;;;;;-2.10;70.80;96724.59;1855609;77;25706;-77
2021/04/05 02:24:02;;;;;;;22.32;12.70;;;;;;;-2.07;70.82;96716.86;1855577;77;27529;-77
2021/04/05 02:26:32;;;;;;;28.25;14.43;;;;;;;-2.13;70.79;96703.73;1855475;77;25723;-77
2021/04/05 02:29:03;;;;;;;34.30;17.75;;;;;;;-2.15;70.82;96703.53;1855448;77;25701;-77
2021/04/05 02:31:33;;;;;;;33.70;16.82;;;;;;;-2.17;70.86;96701.03;1855580;77;25725;-77
2021/04/05 02:34:01;;;;;;;25.12;13.68;;;;;;;-2.20;70.89;96696.91;1824869;77;25375;-77
2021/04/05 02:36:31;;;;;;;21.93;12.40;;;;;;;-2.23;70.92;96688.42;1831367;77;27496;-78
2021/04/05 02:39:06;;;;;;;23.70;12.43;;;;;;;-2.28;70.98;96685.39;1821890;77;26281;-78
2021/04/05 02:41:38;;;;;;;26.33;13.05;;;;;;;-2.31;71.03;96685.22;1822841;78;25610;-77
2021/04/05 02:44:07;;;;;;;22.45;12.73;;;;;;;-2.29;71.13;96675.79;1822776;78;25741;-77
2021/04/05 02:46:38;;;;;;;24.75;12.18;;;;;;;-2.29;71.15;96661.25;1848429;77;25787;-77
2021/04/05 02:49:12;;;;;;;21.65;11.53;;;;;;;-2.31;71.20;96657.95;1858184;77;27491;-77
2021/04/05 02:51:46;;;;;;;24.75;13.50;;;;;;;-2.30;71.12;96652.52;1850326;77;26108;-77
2021/04/05 02:54:20;;;;;;;23.27;12.80;;;;;;;-2.28;71.12;96649.70;1858314;77;25748;-77
2021/04/05 02:56:48;;;;;;;25.17;13.05;;;;;;;-2.26;71.10;96656.50;1858181;77;25741;-77
2021/04/05 02:59:20;;;;;;;22.62;12.40;;;;;;;-2.22;71.11;96659.20;1858218;77;25771;-77
2021/04/05 03:01:49;;;;;;;22.40;11.53;;;;;;;-2.23;71.06;96655.37;1858393;77;29016;-77
2021/04/05 03:04:18;;;;;;;21.82;11.15;;;;;;;-2.24;71.06;96647.11;1858067;77;26197;-77
2021/04/05 03:06:45;;;;;;;22.37;11.40;;;;;;;-2.28;71.09;96643.09;1858293;77;26232;-78
2021/04/05 03:09:12;;;;;;;23.07;12.55;;;;;;;-2.32;71.13;96648.36;1827446;77;25678;-77
2021/04/05 03:11:43;;;;;;;28.02;12.20;;;;;;;-2.34;71.14;96635.78;1858297;77;25691;-77
2021/04/05 03:14:11;;;;;;;21.42;11.28;;;;;;;-2.33;71.21;96633.48;1858255;77;27579;-77
2021/04/05 03:16:41;;;;;;;21.62;12.07;;;;;;;-2.35;71.14;96630.15;1858124;77;25688;-77
2021/04/05 03:19:11;;;;;;;22.20;11.55;;;;;;;-2.36;71.21;96626.67;1858255;77;25728;-77
2021/04/05 03:21:44;;;;;;;21.33;12.60;;;;;;;-2.39;71.19;96623.48;1858214;77;25698;-77
2021/04/05 03:24:13;;;;;;;22.07;11.48;;;;;;;-2.40;71.26;96619.19;1858369;77;25769;-77
2021/04/05 03:26:41;;;;;;;20.90;10.93;;;;;;;-2.42;71.18;96619.84;1858175;77;27763;-77
2021/04/05 03:29:12;;;;;;;19.27;9.70;;;;;;;-2.45;71.19;96610.89;1837469;77;25774;-77
2021/04/05 03:31:43;;;;;;;18.00;10.35;;;;;;;-2.46;71.30;96603.94;1837174;77;26584;-77
2021/04/05 03:34:28;;;;;;;19.98;11.50;;;;;;;-2.47;71.32;96599.63;1858267;77;25882;-77
2021/04/05 03:37:12;;;;;;;20.92;11.28;;;;;;;-2.45;71.32;96598.51;1858130;77;26242;-77
2021/04/05 03:39:40;;;;;;;15.20;9.40;;;;;;;-2.39;71.29;96595.73;1858227;77;27480;-76
2021/04/05 03:42:18;;;;;;;19.23;10.15;;;;;;;-2.37;71.24;96593.78;1858028;77;25833;-77
2021/04/05 03:44:59;;;;;;;19.15;11.18;;;;;;;-2.38;71.14;96589.47;1858195;77;25626;-77
2021/04/05 03:47:54;;;;;;;18.70;10.50;;;;;;;-2.36;71.13;96583.06;1858513;77;25736;-77
2021/04/05 03:50:30;;;;;;;19.50;10.40;;;;;;;-2.30;71.17;96581.64;1858257;77;25669;-77
2021/04/05 03:53:15;;;;;;;22.85;11.55;;;;;;;-2.31;71.17;96572.05;1852946;77;27483;-77
2021/04/05 03:55:46;;;;;;;22.87;11.85;;;;;;;-2.29;71.21;96568.23;1824526;78;25737;-77
2021/04/05 03:58:17;;;;;;;26.43;12.17;;;;;;;-2.21;71.26;96570.14;1824754;78;25799;-77
2021/04/05 04:00:46;;;;;;;25.60;12.93;;;;;;;-2.25;71.16;96567.45;1824545;78;25752;-77
2021/04/05 04:03:17;;;;;;;23.00;12.40;;;;;;;-2.24;71.15;96563.83;1824552;78;25827;-77
2021/04/05 04:05:50;;;;;;;29.82;13.13;;;;;;;-2.22;71.13;96556.58;1824651;78;27957;-77
2021/04/05 04:08:27;;;;;;;25.80;13.50;;;;;;;-2.17;71.17;96555.61;1824070;78;25308;-77
2021/04/05 04:10:52;;;;;;;24.52;12.80;;;;;;;-2.13;71.04;96554.83;1823642;78;25662;-77
2021/04/05 04:13:21;;;;;;;24.50;11.63;;;;;;;-2.11;70.91;96551.05;1824425;77;25580;-77
2021/04/05 04:15:51;;;;;;;21.90;10.63;;;;;;;-2.03;70.90;96542.34;1824553;78;25702;-77
2021/04/05 04:18:20;;;;;;;15.50;9.48;;;;;;;-1.98;70.83;96540.07;1824697;78;28537;-76
2021/04/05 04:20:48;;;;;;;14.55;9.33;;;;;;;-1.89;70.77;96538.64;1806038;78;25916;-76
2021/04/05 04:23:15;;;;;;;14.35;8.75;;;;;;;-1.83;70.71;96531.42;1824715;78;25641;-77
2021/04/05 04:25:43;;;;;;;15.48;9.18;;;;;;;-1.73;70.59;96530.48;1824648;78;25797;-77
2021/04/05 04:28:17;;;;;;;12.93;8.33;;;;;;;-1.64;70.47;96529.03;1842547;77;25732;-76
2021/04/05 04:30:44;;;;;;;16.35;8.65;;;;;;;-1.51;70.33;96532.58;1858207;77;27492;-77
2021/04/05 04:33:12;;;;;;;15.48;8.95;;;;;;;-1.41;70.18;96526.66;1858207;77;25661;-77
2021/04/05 04:35:41;;;;;;;15.45;8.25;;;;;;;-1.35;70.01;96519.42;1858436;77;26043;-77
2021/04/05 04:38:08;;;;;;;13.32;8.28;;;;;;;-1.28;69.88;96519.61;1857823;77;25865;-77
2021/04/05 04:40:37;;;;;;;13.93;8.65;;;;;;;-1.18;69.74;96512.36;1852097;77;25752;-77
2021/04/05 04:43:07;;;;;;;16.25;8.50;;;;;;;-1.10;69.67;96506.61;1852028;77;27481;-77
2021/04/05 04:45:36;;;;;;;15.90;8.80;;;;;;;-1.01;69.51;96502.66;1836592;77;25689;-77
2021/04/05 04:48:04;;;;;;;15.75;9.08;;;;;;;-0.94;69.35;96498.35;1819700;78;25833;-77
2021/04/05 04:50:32;;;;;;;15.55;8.15;;;;;;;-0.85;69.24;96496.91;1842379;77;25592;-77
2021/04/05 04:53:00;;;;;;;12.63;8.30;;;;;;;-0.76;69.09;96476.55;1852011;77;25757;-77
2021/04/05 04:55:28;;;;;;;17.75;8.75;;;;;;;-0.65;69.00;96476.72;1852020;77;27486;-77
2021/04/05 04:58:02;;;;;;;13.68;8.60;;;;;;;-0.52;68.89;96473.91;1851856;77;25663;-77
2021/04/05 05:00:33;;;;;;;14.87;8.98;;;;;;;-0.40;68.75;96471.77;1852052;77;25740;-76
2021/04/05 05:03:02;;;;;;;13.28;9.10;;;;;;;-0.37;68.41;96457.69;1852085;77;26229;-76
2021/04/05 05:05:32;;;;;;;18.00;8.58;;;;;;;-0.28;68.35;96462.48;1852015;77;25322;-76
2021/04/05 05:08:00;;;;;;;16.15;9.18;;;;;;;-0.21;68.23;96454.66;1852038;77;27485;-76
2021/04/05 05:10:29;;;;;;;16.02;10.00;;;;;;;-0.14;68.13;96449.03;1851928;77;25737;-77
2021/04/05 05:12:57;;;;;;;16.15;9.28;;;;;;;-0.07;68.01;96440.72;1852008;77;25710;-77
2021/04/05 05:15:27;;;;;;;14.80;8.38;;;;;;;0.02;67.95;96441.52;1852069;77;26495;-77
2021/04/05 05:17:55;;;;;;;20.75;8.90;;;;;;;0.14;67.86;96442.32;1819507;77;26078;-76
2021/04/05 05:20:23;;;;;;;15.03;8.58;;;;;;;0.25;67.67;96430.51;1851961;77;27486;-76
2021/04/05 05:22:58;;;;;;;16.40;9.18;;;;;;;0.36;67.48;96424.86;1851894;77;25787;-76
2021/04/05 05:25:26;;;;;;;11.45;7.90;;;;;;;0.45;67.29;96417.68;1851990;77;25689;-76
2021/04/05 05:28:02;;;;;;;15.30;8.68;;;;;;;0.49;67.11;96413.66;1812383;78;25697;-77
2021/04/05 05:30:30;;;;;;;14.10;8.45;;;;;;;0.55;66.95;96419.13;1835315;77;25302;-76
2021/04/05 05:33:03;;;;;;;14.38;7.80;;;;;;;0.65;66.94;96417.58;1819732;78;28478;-76
2021/04/05 05:35:33;;;;;;;15.55;8.20;;;;;;;0.73;66.68;96405.57;1844422;77;25749;-76
2021/04/05 05:38:04;;;;;;;16.75;8.33;;;;;;;0.84;66.46;96401.22;1848353;77;25683;-76
2021/04/05 05:40:34;;;;;;;14.47;8.83;;;;;;;0.88;66.36;96402.50;1843057;77;25634;-77
2021/04/05 05:43:16;;;;;;;14.15;7.92;;;;;;;0.95;66.35;96399.98;1809925;79;25679;-77
2021/04/05 05:45:57;;;;;;;12.15;6.95;;;;;;;1.03;66.29;96394.11;1810118;79;28739;-77
2021/04/05 05:48:58;;;;;;;9.23;5.92;;;;;;;1.14;66.01;96389.38;1807651;79;25771;-77
2021/04/05 05:51:58;;;;;;;11.45;6.97;;;;;;;1.25;65.97;96383.64;1728442;82;25807;-76
2021/04/05 05:54:53;;;;;;;14.25;7.05;;;;;;;1.34;65.69;96374.59;1728461;82;25769;-76
2021/04/05 05:57:32;;;;;;;11.33;6.65;;;;;;;1.45;65.53;96377.64;1728530;82;25347;-77
2021/04/05 06:00:24;;;;;;;13.35;6.47;;;;;;;1.56;65.19;96367.10;1728535;82;27552;-77
2021/04/05 06:03:31;;;;;;;9.50;6.58;;;;;;;1.66;64.96;96361.02;1728574;82;25763;-76
2021/04/05 06:06:14;;;;;;;11.22;6.03;;;;;;;1.78;64.61;96349.42;1728524;82;25814;-76
2021/04/05 06:09:23;;;;;;;12.68;6.85;;;;;;;1.90;64.04;96361.77;1728614;82;25776;-78
2021/04/05 06:15:13;;;;;;;11.40;7.03;;;;;;;2.18;63.38;96344.95;1849121;76;34862;-77
2021/04/05 06:18:16;;;;;;;7.95;5.65;;;;;;;2.23;63.32;96337.75;1820129;78;25730;-76
2021/04/05 06:21:11;;;;;;;10.68;5.83;;;;;;;2.36;62.49;96340.59;1820164;78;28471;-77
2021/04/05 06:23:52;;;;;;;10.32;5.40;;;;;;;2.49;62.20;96336.75;1820005;78;25659;-77
2021/04/05 06:26:51;;;;;;;8.35;6.10;;;;;;;2.62;61.63;96321.93;1820090;78;25232;-77
2021/04/05 06:29:43;;;;;;;11.57;6.12;;;;;;;2.72;60.99;96326.45;1801683;78;25830;-78
2021/04/05 06:32:57;;;;;;;8.48;5.42;;;;;;;2.80;59.67;96319.66;1787959;80;25758;-77
2021/04/05 06:36:13;;;;;;;8.75;5.30;;;;;;;2.89;59.55;96321.20;1800942;78;27561;-78
2021/04/05 06:38:51;;;;;;;8.88;5.75;;;;;;;2.98;59.65;96325.39;1805141;78;26138;-77
2021/04/05 06:41:36;;;;;;;10.13;5.45;;;;;;;3.08;59.61;96316.56;1819972;78;25685;-77
2021/04/05 06:44:45;;;;;;;8.38;5.65;;;;;;;3.14;59.61;96313.11;1813286;78;25709;-77
2021/04/05 06:47:42;;;;;;;6.53;4.67;;;;;;;3.24;59.58;96305.64;1787780;80;25635;-77
2021/04/05 06:50:47;;;;;;;7.53;5.15;;;;;;;3.33;59.12;96305.49;1791402;78;26705;-78
2021/04/05 06:53:39;;;;;;;10.20;5.40;;;;;;;3.41;58.66;96300.83;1806202;78;25889;-79
2021/04/05 06:56:11;;;;;;;9.33;4.53;;;;;;;3.50;58.81;96292.99;1806548;78;25669;-79
2021/04/05 06:59:10;;;;;;;8.28;4.83;;;;;;;3.65;58.51;96303.57;1802208;78;25327;-80
2021/04/05 07:05:08;;;;;;;6.37;4.50;;;;;;;3.91;57.27;96274.89;1847844;76;34809;-77
2021/04/05 07:07:41;;;;;;;;;;;;;;;3.95;57.07;96275.64;1827323;77;25638;-77
2021/04/05 07:10:29;;;;;;;7.95;4.67;;;;;;;4.05;56.04;96276.61;1833960;77;27551;-78
2021/04/05 07:13:10;;;;;;;8.30;4.80;;;;;;;4.12;56.05;96276.12;1834846;77;25775;-80
2021/04/05 07:16:04;;;;;;;6.75;4.12;;;;;;;4.21;55.79;96271.45;1821180;77;25660;-80
2021/04/05 07:18:46;;;;;;;8.43;4.62;;;;;;;4.33;55.76;96261.84;1830210;77;25729;-77
2021/04/05 07:21:54;;;;;;;7.47;4.60;;;;;;;4.46;55.78;96260.55;1832305;77;25786;-79
2021/04/05 07:24:37;;;;;;;9.00;4.12;;;;;;;4.57;55.25;96245.27;1831156;77;27598;-77
2021/04/05 07:27:25;;;;;;;7.30;4.12;;;;;;;4.72;55.20;96238.38;1828674;77;25784;-79
2021/04/05 07:30:13;;;;;;;9.65;4.40;;;;;;;4.88;55.09;96233.17;1833167;77;25759;-78
2021/04/05 07:33:15;;;;;;;6.97;4.12;;;;;;;5.03;54.86;96233.81;1831863;77;25742;-79
2021/04/05 07:36:23;;;;;;;9.83;5.22;;;;;;;5.20;54.61;96224.33;1834021;77;25775;-79
2021/04/05 07:39:08;;;;;;;6.87;4.70;;;;;;;5.44;54.35;96221.02;1839461;77;27479;-78
2021/04/05 07:42:12;;;;;;;6.47;4.08;;;;;;;5.86;54.04;96226.91;1828622;77;25751;-78
2021/04/05 07:45:09;;;;;;;8.50;3.58;;;;;;;6.30;54.02;96205.23;1829094;77;25744;-79
2021/04/05 07:48:08;;;;;;;5.80;3.85;;;;;;;6.78;52.78;96197.53;1824976;77;26131;-79
2021/04/05 07:50:55;;;;;;;7.37;4.20;;;;;;;7.15;52.16;96182.38;1830189;77;25813;-81
2021/04/05 07:53:34;;;;;;;7.95;4.30;;;;;;;7.48;51.37;96181.59;1834777;77;27941;-81
2021/04/05 07:56:10;;;;;;;9.18;5.22;;;;;;;7.82;51.33;96178.02;1823440;77;26152;-79
2021/04/05 07:59:15;;;;;;;7.08;3.87;;;;;;;8.08;49.89;96172.34;1827819;77;25702;-80
2021/04/05 08:02:10;;;;;;;6.78;3.85;;;;;;;8.34;50.09;96173.06;1808378;77;26353;-80
2021/04/05 08:05:23;;;;;;;5.15;3.20;;;;;;;8.66;50.08;96158.36;1822866;77;25864;-81
2021/04/05 08:08:19;;;;;;;6.03;3.95;;;;;;;9.02;49.09;96156.86;1838890;77;27588;-80
2021/04/05 08:11:27;;;;;;;6.80;4.00;;;;;;;9.25;48.13;96148.52;1748812;77;25883;-81
2021/04/05 08:14:00;;;;;;;9.13;4.72;;;;;;;9.51;47.88;96139.15;1819009;78;25546;-80
2021/04/05 08:17:08;;;;;;;7.28;3.50;;;;;;;9.88;46.96;96145.08;1818075;78;25829;-78
2021/04/05 08:20:23;;;;;;;8.00;5.33;;;;;;;10.10;46.24;96132.06;1818614;78;25277;-81
2021/04/05 08:23:02;;;;;;;7.28;3.90;;;;;;;10.27;45.08;96132.67;1818539;78;26669;-80
2021/04/05 08:25:56;;;;;;;6.65;4.05;;;;;;;10.53;44.78;96121.84;1804360;78;26061;-81
2021/04/05 08:29:06;;;;;;;7.95;4.25;;;;;;;10.86;45.16;96127.31;1822955;77;25755;-79
2021/04/05 08:32:04;;;;;;;5.78;3.60;;;;;;;11.19;44.57;96117.86;1819085;78;25703;-80
2021/04/05 08:35:13;;;;;;;7.75;4.40;;;;;;;11.45;42.39;96110.15;1819683;78;25771;-80
2021/04/05 08:38:24;;;;;;;4.42;3.47;;;;;;;11.50;42.11;96108.32;1819715;78;27549;-79
2021/04/05 08:41:17;;;;;;;4.92;3.70;;;;;;;11.80;42.42;96107.15;1799027;78;26040;-80
2021/04/05 08:44:14;;;;;;;8.60;4.37;;;;;;;12.01;41.62;96091.99;1827009;77;25737;-80
2021/04/05 08:46:42;;;;;;;9.75;3.65;;;;;;;12.27;42.61;96084.45;1820552;78;25805;-80
2021/04/05 08:49:14;;;;;;;5.95;3.70;;;;;;;12.48;41.78;96082.24;1821430;77;25311;-78
2021/04/05 08:51:49;;;;;;;5.45;3.60;;;;;;;12.58;41.34;96079.63;1821432;78;27422;-79
2021/04/05 08:54:29;;;;;;;4.72;3.72;;;;;;;12.58;38.91;96070.16;1821329;78;25773;-80
2021/04/05 08:57:05;;;;;;;7.00;3.80;;;;;;;12.51;39.72;96083.63;1821333;77;25694;-78
2021/04/05 08:59:56;;;;;;;8.55;4.55;;;;;;;12.53;39.24;96070.66;1821200;78;25682;-79
2021/04/05 09:02:45;;;;;;;8.35;4.15;;;;;;;12.56;39.69;96047.94;1784579;80;25845;-81
2021/04/05 09:05:21;;;;;;;11.50;5.12;;;;;;;12.76;40.28;96043.80;1760217;81;27780;-81
2021/04/05 09:08:09;;;;;;;10.70;4.92;;;;;;;13.12;40.83;96039.47;1756347;81;25990;-79
2021/04/05 09:11:04;;;;;;;9.30;4.95;;;;;;;13.34;40.10;96030.16;1760247;81;25752;-80
2021/04/05 09:13:39;;;;;;;7.37;4.03;;;;;;;13.62;40.91;96032.22;1760393;81;25756;-80
2021/04/05 09:16:30;;;;;;;7.40;4.85;;;;;;;13.80;39.51;96012.77;1757942;81;25776;-81
2021/04/05 09:19:16;;;;;;;5.65;3.65;;;;;;;13.87;38.72;96009.28;1760496;81;27493;-81
2021/04/05 09:22:21;;;;;;;5.10;3.83;;;;;;;14.03;39.07;96001.45;1760401;81;25767;-81
2021/04/05 09:25:38;;;;;;;8.65;3.92;;;;;;;14.15;37.68;95982.75;1760475;81;25820;-81
2021/04/05 09:28:38;;;;;;;8.98;4.75;;;;;;;14.11;37.18;95984.39;1707076;83;25945;-81
2021/04/05 09:31:50;;;;;;;7.20;4.28;;;;;;;14.23;38.06;95980.89;1742728;82;25849;-79
2021/04/05 09:34:49;;;;;;;8.50;4.25;;;;;;;14.27;37.22;95981.96;1747775;82;27491;-80
2021/04/05 09:37:40;;;;;;;10.08;5.45;;;;;;;14.16;37.18;95977.60;1759656;81;25821;-79
2021/04/05 09:40:39;;;;;;;11.43;4.92;;;;;;;14.13;35.96;95965.38;1815318;79;26247;-80
2021/04/05 09:43:49;;;;;;;8.48;4.53;;;;;;;13.93;35.79;95951.78;1778822;80;26106;-81
2021/04/05 09:46:45;;;;;;;6.58;4.30;;;;;;;14.10;34.79;95963.77;1718148;81;25779;-79
2021/04/05 09:49:37;;;;;;;7.30;3.50;;;;;;;14.03;34.97;95937.69;1815404;79;27526;-80
2021/04/05 09:52:17;;;;;;;;;;;;;;;14.21;34.10;95954.56;1781938;80;25658;-78
2021/04/05 09:54:55;;;;;;;5.87;3.70;;;;;;;14.29;34.97;95943.16;1759451;81;25784;-80
2021/04/05 09:57:28;;;;;;;7.17;3.62;;;;;;;14.37;35.46;95943.42;1815384;79;26148;-79
2021/04/05 09:59:59;;;;;;;8.55;4.10;;;;;;;14.33;34.62;95929.33;1814590;78;25784;-80
2021/04/05 10:02:34;;;;;;;7.03;3.98;;;;;;;14.22;34.26;95918.20;1779327;80;28386;-80
2021/04/05 10:05:03;;;;;;;8.70;4.30;;;;;;;14.33;35.03;95900.83;1759784;80;26117;-79
2021/04/05 10:07:32;;;;;;;6.05;3.92;;;;;;;14.67;34.70;95904.64;1815347;78;25756;-79
2021/04/05 10:10:02;;;;;;;6.83;3.95;;;;;;;14.94;34.35;95895.36;1815394;78;25662;-79
2021/04/05 10:12:31;;;;;;;5.28;3.52;;;;;;;15.01;33.40;95897.23;1815371;79;25861;-80
2021/04/05 10:14:59;;;;;;;6.12;3.98;;;;;;;14.97;33.89;95891.53;1792896;79;27481;-81
2021/04/05 10:17:29;;;;;;;5.67;4.28;;;;;;;15.08;33.28;95876.04;1815272;79;26244;-79
2021/04/05 10:20:02;;;;;;;7.85;3.62;;;;;;;15.06;32.92;95893.16;1792777;77;25866;-83
2021/04/05 10:22:33;;;;;;;8.10;3.83;;;;;;;14.98;32.29;95890.98;1779109;80;25846;-80
2021/04/05 10:25:03;;;;;;;9.40;4.73;;;;;;;14.93;32.99;95880.15;1778080;80;25711;-80
2021/04/05 10:27:32;;;;;;;7.30;4.30;;;;;;;14.84;33.35;95879.09;1815284;77;27429;-79
2021/04/05 10:30:03;;;;;;;6.62;4.08;;;;;;;14.95;33.73;95862.48;1815222;78;25708;-80
2021/04/05 10:32:31;;;;;;;9.58;6.10;;;;;;;15.01;33.82;95848.33;1779393;80;25644;-80
2021/04/05 10:35:01;;;;;;;7.20;3.83;;;;;;;15.15;34.67;95864.31;1779402;80;26033;-79
2021/04/05 10:37:35;;;;;;;7.10;4.15;;;;;;;15.33;34.71;95839.80;1815253;79;25701;-81
2021/04/05 10:40:04;;;;;;;4.60;3.40;;;;;;;15.45;34.79;95854.69;1798250;79;27420;-80
2021/04/05 10:42:50;;;;;;;7.47;4.05;;;;;;;15.41;32.30;95854.97;1811397;79;26067;-78
2021/04/05 10:45:30;;;;;;;7.15;4.12;;;;;;;15.19;33.02;95837.41;1818418;77;25710;-80
2021/04/05 10:48:22;;;;;;;12.05;5.30;;;;;;;15.26;33.02;95840.08;1836317;77;25716;-79
2021/04/05 10:51:00;;;;;;;6.97;3.85;;;;;;;15.44;32.99;95820.43;1832358;77;25716;-80
2021/04/05 10:53:32;;;;;;;6.85;3.60;;;;;;;15.66;33.75;95802.92;1819679;77;27467;-80
2021/04/05 10:56:08;;;;;;;;;;;;;;;16.08;33.95;95801.78;1828153;77;25792;-81
2021/04/05 10:58:50;;;;;;;7.40;3.52;;;;;;;16.23;29.42;95789.95;1819726;77;25761;-81
2021/04/05 11:01:20;;;;;;;4.67;3.15;;;;;;;15.94;31.72;95791.27;1826726;77;25729;-81
2021/04/05 11:03:50;;;;;;;10.18;3.67;;;;;;;16.05;31.40;95783.86;1843419;77;25740;-79
2021/04/05 11:06:22;;;;;;;8.43;3.72;;;;;;;16.24;32.40;95782.59;1846954;77;26905;-80
2021/04/05 11:08:55;;;;;;;6.80;3.58;;;;;;;16.27;30.17;95772.50;1846734;77;25791;-81
2021/04/05 11:11:30;;;;;;;6.12;3.27;;;;;;;16.35;31.96;95788.20;1846781;77;25737;-80
2021/04/05 11:14:04;;;;;;;5.50;3.10;;;;;;;16.57;32.48;95783.08;1846911;77;25772;-79
2021/04/05 11:16:34;;;;;;;6.30;3.35;;;;;;;16.63;31.38;95777.07;1846775;77;25737;-79
2021/04/05 11:19:08;;;;;;;4.05;3.10;;;;;;;16.61;29.30;95762.34;1846784;77;27594;-80
2021/04/05 11:21:42;;;;;;;5.37;3.22;;;;;;;16.46;30.56;95768.76;1846858;77;26257;-80
2021/04/05 11:24:12;;;;;;;5.28;3.00;;;;;;;16.65;31.41;95753.89;1846853;77;25632;-81
2021/04/05 11:26:43;;;;;;;3.62;2.77;;;;;;;16.96;31.30;95750.80;1846750;77;27248;-79
2021/04/05 11:29:14;;;;;;;5.00;3.00;;;;;;;16.88;28.65;95746.27;1847051;77;25687;-79
2021/04/05 11:31:45;;;;;;;5.87;3.00;;;;;;;16.68;29.62;95739.67;1846922;77;27487;-80
2021/04/05 11:34:27;;;;;;;6.20;3.20;;;;;;;16.77;29.12;95743.95;1846039;77;25987;-79
2021/04/05 11:37:00;;;;;;;5.40;2.75;;;;;;;16.78;29.43;95749.66;1847021;77;25687;-80
2021/04/05 11:39:32;;;;;;;3.20;2.67;;;;;;;16.68;28.96;95743.76;1846132;77;26124;-78
2021/04/05 11:42:03;;;;;;;8.58;2.95;;;;;;;16.68;29.65;95727.41;1846891;77;25653;-79
2021/04/05 11:44:50;;;;;;;5.72;2.95;;;;;;;16.70;28.36;95722.48;1846735;77;27555;-80
2021/04/05 11:47:20;;;;;;;5.62;3.40;;;;;;;16.85;28.43;95736.48;1846712;77;25298;-79
2021/04/05 11:49:49;;;;;;;8.58;3.90;;;;;;;16.73;28.72;95720.55;1846895;77;25686;-80
2021/04/05 11:52:36;;;;;;;4.60;3.08;;;;;;;16.77;29.17;95718.06;1846871;77;26434;-80
2021/04/05 11:55:07;;;;;;;5.17;3.17;;;;;;;16.73;27.59;95715.10;1846512;77;25742;-79
2021/04/05 11:57:45;;;;;;;4.85;3.10;;;;;;;16.52;26.73;95730.03;1846896;77;27495;-79
2021/04/05 12:00:18;;;;;;;5.10;3.10;;;;;;;16.15;27.30;95711.64;1846814;77;25722;-80
2021/04/05 12:03:12;;;;;;;10.95;7.33;;;;;;;15.95;28.30;95711.81;1817063;77;26160;-79
2021/04/05 12:05:59;;;;;;;6.70;5.30;;;;;;;16.14;28.23;95720.35;1846952;77;25635;-80
2021/04/05 12:08:38;;;;;;;7.28;4.50;;;;;;;16.01;27.81;95727.83;1802125;77;25818;-81
2021/04/05 12:11:07;;;;;;;6.95;4.42;;;;;;;15.83;28.04;95697.22;1847079;77;27560;-80
2021/04/05 12:13:52;;;;;;;6.15;4.37;;;;;;;16.05;29.08;95698.95;1846941;77;25706;-80
2021/04/05 12:16:25;;;;;;;5.72;3.42;;;;;;;16.38;29.20;95696.42;1847008;77;25747;-80
2021/04/05 12:18:55;;;;;;;4.50;3.05;;;;;;;16.70;28.73;95697.97;1846906;76;25758;-79
2021/04/05 12:21:29;;;;;;;4.75;2.77;;;;;;;16.73;27.90;95696.03;1846950;77;25800;-80
2021/04/05 12:24:00;;;;;;;5.00;2.60;;;;;;;16.58;28.23;95676.56;1847019;77;27487;-80
2021/04/05 12:26:31;;;;;;;5.37;3.15;;;;;;;16.41;27.20;95679.52;1846962;77;25666;-79